sensor_id;sensor_type;location;lat;lon;timestamp;P1;durP1;ratioP1;P2;durP2;ratioP2
16856;SDS011;8544;51.312;12.276;2023-02-15T00:01:17;7.80;;;7.40;;
16856;SDS011;8544;51.312;12.276;2023-02-15T00:03:47;8.20;;;7.87;;
16856;SDS011;8544;51.312;12.276;2023-02-15T00:06:16;7.80;;;7.27;;
16856;SDS011;8544;51.312;12.276;2023-02-15T00:08:47;7.63;;;7.33;;
16856;SDS011;8544;51.312;12.276;2023-02-15T00:11:19;6.73;;;6.47;;
16856;SDS011;8544;51.312;12.276;2023-02-15T00:14:05;7.10;;;6.90;;
16856;SDS011;8544;51.312;12.276;2023-02-15T00:16:35;6.53;;;6.33;;
16856;SDS011;8544;51.312;12.276;2023-02-15T00:19:05;6.53;;;6.23;;
16856;SDS011;8544;51.312;12.276;2023-02-15T00:21:34;9.27;;;7.07;;
16856;SDS011;8544;51.312;12.276;2023-02-15T00:24:05;8.03;;;7.63;;
16856;SDS011;8544;51.312;12.276;2023-02-15T00:26:34;5.40;;;5.30;;
16856;SDS011;8544;51.312;12.276;2023-02-15T00:29:03;7.17;;;6.87;;
16856;SDS011;8544;51.312;12.276;2023-02-15T00:31:36;6.70;;;6.50;;
16856;SDS011;8544;51.312;12.276;2023-02-15T00:34:05;8.47;;;7.90;;
16856;SDS011;8544;51.312;12.276;2023-02-15T00:36:44;7.30;;;7.00;;
16856;SDS011;8544;51.312;12.276;2023-02-15T00:39:13;8.07;;;7.40;;
16856;SDS011;8544;51.312;12.276;2023-02-15T00:41:41;7.83;;;7.53;;
16856;SDS011;8544;51.312;12.276;2023-02-15T00:44:11;6.03;;;5.83;;
16856;SDS011;8544;51.312;12.276;2023-02-15T00:46:42;6.97;;;6.77;;
16856;SDS011;8544;51.312;12.276;2023-02-15T00:49:16;6.83;;;6.63;;
16856;SDS011;8544;51.312;12.276;2023-02-15T00:51:46;6.90;;;6.70;;
16856;SDS011;8544;51.312;12.276;2023-02-15T00:54:17;6.30;;;6.10;;
16856;SDS011;8544;51.312;12.276;2023-02-15T00:56:46;7.07;;;6.63;;
16856;SDS011;8544;51.312;12.276;2023-02-15T00:59:14;6.37;;;6.17;;
16856;SDS011;8544;51.312;12.276;2023-02-15T01:01:45;7.00;;;6.80;;
16856;SDS011;8544;51.312;12.276;2023-02-15T01:04:17;7.67;;;7.37;;
16856;SDS011;8544;51.312;12.276;2023-02-15T01:06:47;6.47;;;6.27;;
16856;SDS011;8544;51.312;12.276;2023-02-15T01:09:17;8.13;;;7.73;;
16856;SDS011;8544;51.312;12.276;2023-02-15T01:11:47;7.70;;;7.40;;
16856;SDS011;8544;51.312;12.276;2023-02-15T01:14:17;8.23;;;7.83;;
16856;SDS011;8544;51.312;12.276;2023-02-15T01:16:57;6.07;;;5.87;;
16856;SDS011;8544;51.312;12.276;2023-02-15T01:19:29;6.50;;;6.20;;
16856;SDS011;8544;51.312;12.276;2023-02-15T01:21:59;6.43;;;6.23;;
16856;SDS011;8544;51.312;12.276;2023-02-15T01:24:38;5.33;;;5.23;;
16856;SDS011;8544;51.312;12.276;2023-02-15T01:27:29;7.73;;;7.30;;
16856;SDS011;8544;51.312;12.276;2023-02-15T01:30:00;8.93;;;8.23;;
16856;SDS011;8544;51.312;12.276;2023-02-15T01:32:33;5.93;;;5.80;;
16856;SDS011;8544;51.312;12.276;2023-02-15T01:35:02;6.07;;;5.87;;
16856;SDS011;8544;51.312;12.276;2023-02-15T01:37:35;6.97;;;6.67;;
16856;SDS011;8544;51.312;12.276;2023-02-15T01:40:19;6.87;;;6.57;;
16856;SDS011;8544;51.312;12.276;2023-02-15T01:42:49;5.33;;;5.23;;
16856;SDS011;8544;51.312;12.276;2023-02-15T01:45:20;6.57;;;6.37;;
16856;SDS011;8544;51.312;12.276;2023-02-15T01:48:01;6.53;;;6.23;;
16856;SDS011;8544;51.312;12.276;2023-02-15T01:50:36;6.13;;;5.93;;
16856;SDS011;8544;51.312;12.276;2023-02-15T01:53:13;8.17;;;7.77;;
16856;SDS011;8544;51.312;12.276;2023-02-15T01:55:45;8.07;;;7.53;;
16856;SDS011;8544;51.312;12.276;2023-02-15T01:58:16;7.17;;;6.93;;
16856;SDS011;8544;51.312;12.276;2023-02-15T02:00:52;6.40;;;6.20;;
16856;SDS011;8544;51.312;12.276;2023-02-15T02:03:33;6.57;;;6.37;;
16856;SDS011;8544;51.312;12.276;2023-02-15T02:06:15;6.73;;;6.43;;
16856;SDS011;8544;51.312;12.276;2023-02-15T02:08:44;6.97;;;6.77;;
16856;SDS011;8544;51.312;12.276;2023-02-15T02:11:16;6.77;;;6.50;;
16856;SDS011;8544;51.312;12.276;2023-02-15T02:13:49;6.00;;;5.80;;
16856;SDS011;8544;51.312;12.276;2023-02-15T02:16:20;6.33;;;6.13;;
16856;SDS011;8544;51.312;12.276;2023-02-15T02:18:57;8.10;;;7.73;;
16856;SDS011;8544;51.312;12.276;2023-02-15T02:21:35;7.23;;;6.93;;
16856;SDS011;8544;51.312;12.276;2023-02-15T02:24:15;5.90;;;5.80;;
16856;SDS011;8544;51.312;12.276;2023-02-15T02:33:22;7.17;;;6.77;;
16856;SDS011;8544;51.312;12.276;2023-02-15T02:36:06;5.70;;;5.60;;
16856;SDS011;8544;51.312;12.276;2023-02-15T02:38:50;6.93;;;6.73;;
16856;SDS011;8544;51.312;12.276;2023-02-15T02:41:44;6.53;;;6.33;;
16856;SDS011;8544;51.312;12.276;2023-02-15T02:44:22;7.87;;;7.50;;
16856;SDS011;8544;51.312;12.276;2023-02-15T02:46:54;7.30;;;7.00;;
16856;SDS011;8544;51.312;12.276;2023-02-15T02:49:39;6.60;;;6.40;;
16856;SDS011;8544;51.312;12.276;2023-02-15T02:54:54;6.13;;;5.97;;
16856;SDS011;8544;51.312;12.276;2023-02-15T02:57:30;7.60;;;7.20;;
16856;SDS011;8544;51.312;12.276;2023-02-15T03:00:03;7.53;;;7.23;;
16856;SDS011;8544;51.312;12.276;2023-02-15T03:02:37;6.77;;;6.57;;
16856;SDS011;8544;51.312;12.276;2023-02-15T03:05:11;7.67;;;7.33;;
16856;SDS011;8544;51.312;12.276;2023-02-15T03:08:06;6.63;;;6.43;;
16856;SDS011;8544;51.312;12.276;2023-02-15T03:10:42;7.27;;;6.97;;
16856;SDS011;8544;51.312;12.276;2023-02-15T03:13:15;6.30;;;6.10;;
16856;SDS011;8544;51.312;12.276;2023-02-15T03:15:48;6.87;;;6.67;;
16856;SDS011;8544;51.312;12.276;2023-02-15T03:18:38;7.87;;;7.57;;
16856;SDS011;8544;51.312;12.276;2023-02-15T03:21:26;6.40;;;6.20;;
16856;SDS011;8544;51.312;12.276;2023-02-15T03:23:58;6.83;;;6.63;;
16856;SDS011;8544;51.312;12.276;2023-02-15T03:26:53;6.90;;;6.47;;
16856;SDS011;8544;51.312;12.276;2023-02-15T03:29:25;7.13;;;6.83;;
16856;SDS011;8544;51.312;12.276;2023-02-15T03:31:58;7.80;;;7.50;;
16856;SDS011;8544;51.312;12.276;2023-02-15T03:34:31;8.27;;;7.97;;
16856;SDS011;8544;51.312;12.276;2023-02-15T03:37:05;8.20;;;7.70;;
16856;SDS011;8544;51.312;12.276;2023-02-15T03:39:40;6.50;;;6.30;;
16856;SDS011;8544;51.312;12.276;2023-02-15T03:42:13;7.57;;;7.27;;
16856;SDS011;8544;51.312;12.276;2023-02-15T03:44:46;7.57;;;7.27;;
16856;SDS011;8544;51.312;12.276;2023-02-15T03:47:19;7.53;;;7.23;;
16856;SDS011;8544;51.312;12.276;2023-02-15T03:49:51;8.90;;;7.90;;
16856;SDS011;8544;51.312;12.276;2023-02-15T03:52:23;7.57;;;7.27;;
16856;SDS011;8544;51.312;12.276;2023-02-15T03:54:55;7.93;;;7.53;;
16856;SDS011;8544;51.312;12.276;2023-02-15T03:57:39;7.27;;;6.97;;
16856;SDS011;8544;51.312;12.276;2023-02-15T04:00:25;7.07;;;6.87;;
16856;SDS011;8544;51.312;12.276;2023-02-15T04:03:12;6.97;;;6.77;;
16856;SDS011;8544;51.312;12.276;2023-02-15T04:05:46;8.30;;;7.20;;
16856;SDS011;8544;51.312;12.276;2023-02-15T04:08:18;8.30;;;7.90;;
16856;SDS011;8544;51.312;12.276;2023-02-15T04:11:11;7.13;;;6.93;;
16856;SDS011;8544;51.312;12.276;2023-02-15T04:13:39;7.60;;;7.10;;
16856;SDS011;8544;51.312;12.276;2023-02-15T04:16:11;6.60;;;6.40;;
16856;SDS011;8544;51.312;12.276;2023-02-15T04:18:40;8.73;;;7.90;;
16856;SDS011;8544;51.312;12.276;2023-02-15T04:21:28;7.33;;;7.07;;
16856;SDS011;8544;51.312;12.276;2023-02-15T04:24:15;6.37;;;6.17;;
16856;SDS011;8544;51.312;12.276;2023-02-15T04:27:01;7.23;;;7.00;;
16856;SDS011;8544;51.312;12.276;2023-02-15T04:29:33;7.83;;;7.53;;
16856;SDS011;8544;51.312;12.276;2023-02-15T04:32:03;8.03;;;7.70;;
16856;SDS011;8544;51.312;12.276;2023-02-15T04:34:43;7.73;;;7.43;;
16856;SDS011;8544;51.312;12.276;2023-02-15T04:37:12;7.47;;;7.10;;
16856;SDS011;8544;51.312;12.276;2023-02-15T04:39:45;8.43;;;8.03;;
16856;SDS011;8544;51.312;12.276;2023-02-15T04:42:19;7.87;;;7.50;;
16856;SDS011;8544;51.312;12.276;2023-02-15T04:44:52;6.93;;;6.73;;
16856;SDS011;8544;51.312;12.276;2023-02-15T04:47:24;6.90;;;6.70;;
16856;SDS011;8544;51.312;12.276;2023-02-15T04:49:53;8.30;;;7.67;;
16856;SDS011;8544;51.312;12.276;2023-02-15T04:52:28;7.40;;;7.20;;
16856;SDS011;8544;51.312;12.276;2023-02-15T04:55:09;8.70;;;8.30;;
16856;SDS011;8544;51.312;12.276;2023-02-15T04:57:39;9.00;;;8.37;;
16856;SDS011;8544;51.312;12.276;2023-02-15T05:00:10;7.80;;;7.50;;
16856;SDS011;8544;51.312;12.276;2023-02-15T05:02:40;8.63;;;8.33;;
16856;SDS011;8544;51.312;12.276;2023-02-15T05:05:09;7.23;;;7.03;;
16856;SDS011;8544;51.312;12.276;2023-02-15T05:07:45;7.43;;;7.23;;
16856;SDS011;8544;51.312;12.276;2023-02-15T05:10:17;7.90;;;7.60;;
16856;SDS011;8544;51.312;12.276;2023-02-15T05:13:01;8.43;;;8.13;;
16856;SDS011;8544;51.312;12.276;2023-02-15T05:15:30;7.87;;;7.57;;
16856;SDS011;8544;51.312;12.276;2023-02-15T05:18:10;7.77;;;7.47;;
16856;SDS011;8544;51.312;12.276;2023-02-15T05:21:03;7.17;;;6.87;;
16856;SDS011;8544;51.312;12.276;2023-02-15T05:23:33;7.50;;;7.20;;
16856;SDS011;8544;51.312;12.276;2023-02-15T05:26:05;8.30;;;7.90;;
16856;SDS011;8544;51.312;12.276;2023-02-15T05:28:50;9.07;;;8.53;;
16856;SDS011;8544;51.312;12.276;2023-02-15T05:31:42;8.30;;;8.00;;
16856;SDS011;8544;51.312;12.276;2023-02-15T05:34:15;6.97;;;6.77;;
16856;SDS011;8544;51.312;12.276;2023-02-15T05:36:45;7.73;;;7.43;;
16856;SDS011;8544;51.312;12.276;2023-02-15T05:39:13;7.40;;;7.20;;
16856;SDS011;8544;51.312;12.276;2023-02-15T05:41:45;9.33;;;8.70;;
16856;SDS011;8544;51.312;12.276;2023-02-15T05:44:17;7.80;;;7.50;;
16856;SDS011;8544;51.312;12.276;2023-02-15T05:46:45;8.10;;;7.80;;
16856;SDS011;8544;51.312;12.276;2023-02-15T05:49:15;7.00;;;6.80;;
16856;SDS011;8544;51.312;12.276;2023-02-15T05:51:46;6.47;;;6.27;;
16856;SDS011;8544;51.312;12.276;2023-02-15T05:54:17;7.50;;;7.30;;
16856;SDS011;8544;51.312;12.276;2023-02-15T05:56:48;8.63;;;8.23;;
16856;SDS011;8544;51.312;12.276;2023-02-15T05:59:17;7.07;;;6.87;;
16856;SDS011;8544;51.312;12.276;2023-02-15T06:01:47;7.77;;;7.47;;
16856;SDS011;8544;51.312;12.276;2023-02-15T06:04:16;7.63;;;7.33;;
16856;SDS011;8544;51.312;12.276;2023-02-15T06:06:47;8.90;;;8.40;;
16856;SDS011;8544;51.312;12.276;2023-02-15T06:09:17;7.23;;;7.03;;
16856;SDS011;8544;51.312;12.276;2023-02-15T06:11:48;7.33;;;7.03;;
16856;SDS011;8544;51.312;12.276;2023-02-15T06:14:19;7.60;;;7.30;;
16856;SDS011;8544;51.312;12.276;2023-02-15T06:16:49;8.07;;;7.77;;
16856;SDS011;8544;51.312;12.276;2023-02-15T06:19:19;6.40;;;6.20;;
16856;SDS011;8544;51.312;12.276;2023-02-15T06:21:49;7.13;;;6.93;;
16856;SDS011;8544;51.312;12.276;2023-02-15T06:24:23;8.17;;;7.83;;
16856;SDS011;8544;51.312;12.276;2023-02-15T06:26:53;6.67;;;6.47;;
16856;SDS011;8544;51.312;12.276;2023-02-15T06:29:23;7.17;;;6.97;;
16856;SDS011;8544;51.312;12.276;2023-02-15T06:31:51;6.93;;;6.73;;
16856;SDS011;8544;51.312;12.276;2023-02-15T06:34:23;7.83;;;7.50;;
16856;SDS011;8544;51.312;12.276;2023-02-15T06:36:51;9.60;;;8.90;;
16856;SDS011;8544;51.312;12.276;2023-02-15T06:39:20;7.17;;;6.97;;
16856;SDS011;8544;51.312;12.276;2023-02-15T06:41:49;11.07;;;8.30;;
16856;SDS011;8544;51.312;12.276;2023-02-15T06:44:19;8.17;;;7.87;;
16856;SDS011;8544;51.312;12.276;2023-02-15T06:46:58;7.57;;;7.27;;
16856;SDS011;8544;51.312;12.276;2023-02-15T06:49:37;7.70;;;7.40;;
16856;SDS011;8544;51.312;12.276;2023-02-15T06:52:06;6.80;;;6.60;;
16856;SDS011;8544;51.312;12.276;2023-02-15T06:54:40;7.13;;;6.83;;
16856;SDS011;8544;51.312;12.276;2023-02-15T06:57:08;6.67;;;6.47;;
16856;SDS011;8544;51.312;12.276;2023-02-15T06:59:39;6.60;;;6.40;;
16856;SDS011;8544;51.312;12.276;2023-02-15T07:02:07;8.23;;;7.50;;
16856;SDS011;8544;51.312;12.276;2023-02-15T07:04:36;8.20;;;7.87;;
16856;SDS011;8544;51.312;12.276;2023-02-15T07:07:07;7.17;;;6.97;;
16856;SDS011;8544;51.312;12.276;2023-02-15T07:09:36;6.57;;;6.37;;
16856;SDS011;8544;51.312;12.276;2023-02-15T07:12:04;6.07;;;5.87;;
16856;SDS011;8544;51.312;12.276;2023-02-15T07:14:52;10.13;;;9.17;;
16856;SDS011;8544;51.312;12.276;2023-02-15T07:17:21;8.77;;;8.27;;
16856;SDS011;8544;51.312;12.276;2023-02-15T07:20:04;6.63;;;6.43;;
16856;SDS011;8544;51.312;12.276;2023-02-15T07:22:35;6.63;;;6.33;;
16856;SDS011;8544;51.312;12.276;2023-02-15T07:25:05;5.33;;;5.23;;
16856;SDS011;8544;51.312;12.276;2023-02-15T07:27:34;4.83;;;4.73;;
16856;SDS011;8544;51.312;12.276;2023-02-15T07:30:06;6.30;;;5.97;;
16856;SDS011;8544;51.312;12.276;2023-02-15T07:32:40;5.80;;;5.50;;
16856;SDS011;8544;51.312;12.276;2023-02-15T07:35:31;5.67;;;5.37;;
16856;SDS011;8544;51.312;12.276;2023-02-15T07:38:02;6.17;;;5.87;;
16856;SDS011;8544;51.312;12.276;2023-02-15T07:40:30;5.20;;;5.00;;
16856;SDS011;8544;51.312;12.276;2023-02-15T07:42:59;5.40;;;5.20;;
16856;SDS011;8544;51.312;12.276;2023-02-15T07:45:28;6.77;;;6.37;;
16856;SDS011;8544;51.312;12.276;2023-02-15T07:47:58;4.43;;;4.33;;
16856;SDS011;8544;51.312;12.276;2023-02-15T07:50:28;5.27;;;4.90;;
16856;SDS011;8544;51.312;12.276;2023-02-15T07:52:57;3.43;;;3.33;;
16856;SDS011;8544;51.312;12.276;2023-02-15T07:55:26;4.33;;;4.20;;
16856;SDS011;8544;51.312;12.276;2023-02-15T07:57:54;6.17;;;4.77;;
16856;SDS011;8544;51.312;12.276;2023-02-15T08:00:22;4.67;;;4.40;;
16856;SDS011;8544;51.312;12.276;2023-02-15T08:02:53;4.27;;;4.17;;
16856;SDS011;8544;51.312;12.276;2023-02-15T08:05:36;5.07;;;4.67;;
16856;SDS011;8544;51.312;12.276;2023-02-15T08:08:10;4.60;;;4.40;;
16856;SDS011;8544;51.312;12.276;2023-02-15T08:10:59;3.83;;;3.73;;
16856;SDS011;8544;51.312;12.276;2023-02-15T08:13:43;3.67;;;3.47;;
16856;SDS011;8544;51.312;12.276;2023-02-15T08:16:23;4.23;;;4.03;;
16856;SDS011;8544;51.312;12.276;2023-02-15T08:18:53;3.67;;;3.47;;
16856;SDS011;8544;51.312;12.276;2023-02-15T08:21:23;3.90;;;3.70;;
16856;SDS011;8544;51.312;12.276;2023-02-15T08:23:53;4.20;;;4.00;;
16856;SDS011;8544;51.312;12.276;2023-02-15T08:26:21;8.13;;;3.70;;
16856;SDS011;8544;51.312;12.276;2023-02-15T08:28:51;3.67;;;3.53;;
16856;SDS011;8544;51.312;12.276;2023-02-15T08:31:19;3.50;;;3.40;;
16856;SDS011;8544;51.312;12.276;2023-02-15T08:33:48;2.40;;;2.40;;
16856;SDS011;8544;51.312;12.276;2023-02-15T08:36:18;3.20;;;3.10;;
16856;SDS011;8544;51.312;12.276;2023-02-15T08:38:47;3.43;;;3.27;;
16856;SDS011;8544;51.312;12.276;2023-02-15T08:41:15;3.07;;;2.97;;
16856;SDS011;8544;51.312;12.276;2023-02-15T08:43:43;2.43;;;2.43;;
16856;SDS011;8544;51.312;12.276;2023-02-15T08:46:11;2.47;;;2.47;;
16856;SDS011;8544;51.312;12.276;2023-02-15T08:48:40;2.90;;;2.80;;
16856;SDS011;8544;51.312;12.276;2023-02-15T08:51:09;2.90;;;2.80;;
16856;SDS011;8544;51.312;12.276;2023-02-15T08:53:41;2.80;;;2.70;;
16856;SDS011;8544;51.312;12.276;2023-02-15T08:56:10;3.53;;;3.13;;
16856;SDS011;8544;51.312;12.276;2023-02-15T08:58:39;2.63;;;2.60;;
16856;SDS011;8544;51.312;12.276;2023-02-15T09:01:08;3.43;;;3.27;;
16856;SDS011;8544;51.312;12.276;2023-02-15T09:03:37;3.00;;;2.90;;
16856;SDS011;8544;51.312;12.276;2023-02-15T09:06:07;3.80;;;3.60;;
16856;SDS011;8544;51.312;12.276;2023-02-15T09:08:35;2.90;;;2.80;;
16856;SDS011;8544;51.312;12.276;2023-02-15T09:11:09;2.93;;;2.83;;
16856;SDS011;8544;51.312;12.276;2023-02-15T09:13:37;2.07;;;2.07;;
16856;SDS011;8544;51.312;12.276;2023-02-15T09:16:06;3.50;;;3.40;;
16856;SDS011;8544;51.312;12.276;2023-02-15T09:18:36;3.43;;;3.13;;
16856;SDS011;8544;51.312;12.276;2023-02-15T09:21:07;2.60;;;2.60;;
16856;SDS011;8544;51.312;12.276;2023-02-15T09:23:36;2.87;;;2.77;;
16856;SDS011;8544;51.312;12.276;2023-02-15T09:26:05;2.57;;;2.57;;
16856;SDS011;8544;51.312;12.276;2023-02-15T09:28:36;3.80;;;3.50;;
16856;SDS011;8544;51.312;12.276;2023-02-15T09:31:06;3.63;;;3.30;;
16856;SDS011;8544;51.312;12.276;2023-02-15T09:33:35;2.83;;;2.73;;
16856;SDS011;8544;51.312;12.276;2023-02-15T09:36:04;3.73;;;3.43;;
16856;SDS011;8544;51.312;12.276;2023-02-15T09:38:32;3.00;;;2.90;;
16856;SDS011;8544;51.312;12.276;2023-02-15T09:41:04;3.37;;;3.17;;
16856;SDS011;8544;51.312;12.276;2023-02-15T09:43:38;3.50;;;3.33;;
16856;SDS011;8544;51.312;12.276;2023-02-15T09:46:14;2.83;;;2.73;;
16856;SDS011;8544;51.312;12.276;2023-02-15T09:48:44;2.40;;;2.40;;
16856;SDS011;8544;51.312;12.276;2023-02-15T09:51:19;2.70;;;2.63;;
16856;SDS011;8544;51.312;12.276;2023-02-15T09:53:57;13.30;;;2.80;;
16856;SDS011;8544;51.312;12.276;2023-02-15T09:56:30;3.00;;;2.87;;
16856;SDS011;8544;51.312;12.276;2023-02-15T09:59:07;2.03;;;2.03;;
16856;SDS011;8544;51.312;12.276;2023-02-15T10:01:41;2.70;;;2.60;;
16856;SDS011;8544;51.312;12.276;2023-02-15T10:07:00;2.77;;;2.57;;
16856;SDS011;8544;51.312;12.276;2023-02-15T10:09:43;2.00;;;2.00;;
16856;SDS011;8544;51.312;12.276;2023-02-15T10:12:17;2.93;;;2.70;;
16856;SDS011;8544;51.312;12.276;2023-02-15T10:14:52;2.83;;;2.63;;
16856;SDS011;8544;51.312;12.276;2023-02-15T10:17:28;2.70;;;2.70;;
16856;SDS011;8544;51.312;12.276;2023-02-15T10:20:08;2.70;;;2.60;;
16856;SDS011;8544;51.312;12.276;2023-02-15T10:22:42;2.47;;;2.37;;
16856;SDS011;8544;51.312;12.276;2023-02-15T10:25:17;2.63;;;2.53;;
16856;SDS011;8544;51.312;12.276;2023-02-15T10:27:48;2.70;;;2.60;;
16856;SDS011;8544;51.312;12.276;2023-02-15T10:30:17;2.00;;;2.00;;
16856;SDS011;8544;51.312;12.276;2023-02-15T10:32:52;3.00;;;2.63;;
16856;SDS011;8544;51.312;12.276;2023-02-15T10:35:24;2.83;;;2.73;;
16856;SDS011;8544;51.312;12.276;2023-02-15T10:38:01;2.20;;;2.20;;
16856;SDS011;8544;51.312;12.276;2023-02-15T10:40:32;1.93;;;1.93;;
16856;SDS011;8544;51.312;12.276;2023-02-15T10:43:06;2.53;;;2.43;;
16856;SDS011;8544;51.312;12.276;2023-02-15T10:45:42;1.93;;;1.93;;
16856;SDS011;8544;51.312;12.276;2023-02-15T10:48:16;2.57;;;2.47;;
16856;SDS011;8544;51.312;12.276;2023-02-15T10:50:47;2.43;;;2.33;;
16856;SDS011;8544;51.312;12.276;2023-02-15T10:53:20;2.07;;;1.97;;
16856;SDS011;8544;51.312;12.276;2023-02-15T10:55:54;2.50;;;2.40;;
16856;SDS011;8544;51.312;12.276;2023-02-15T10:58:29;1.60;;;1.60;;
16856;SDS011;8544;51.312;12.276;2023-02-15T11:01:02;2.63;;;2.53;;
16856;SDS011;8544;51.312;12.276;2023-02-15T11:03:40;2.43;;;2.33;;
16856;SDS011;8544;51.312;12.276;2023-02-15T11:06:12;3.53;;;3.27;;
16856;SDS011;8544;51.312;12.276;2023-02-15T11:08:43;1.83;;;1.83;;
16856;SDS011;8544;51.312;12.276;2023-02-15T11:11:12;3.20;;;3.00;;
16856;SDS011;8544;51.312;12.276;2023-02-15T11:13:43;2.27;;;2.27;;
16856;SDS011;8544;51.312;12.276;2023-02-15T11:16:15;1.70;;;1.70;;
16856;SDS011;8544;51.312;12.276;2023-02-15T11:18:45;2.40;;;2.27;;
16856;SDS011;8544;51.312;12.276;2023-02-15T11:21:17;3.73;;;3.43;;
16856;SDS011;8544;51.312;12.276;2023-02-15T11:23:48;1.70;;;1.70;;
16856;SDS011;8544;51.312;12.276;2023-02-15T11:26:19;2.47;;;2.37;;
16856;SDS011;8544;51.312;12.276;2023-02-15T11:28:49;3.50;;;3.23;;
16856;SDS011;8544;51.312;12.276;2023-02-15T11:31:22;2.67;;;2.57;;
16856;SDS011;8544;51.312;12.276;2023-02-15T11:33:52;2.80;;;2.70;;
16856;SDS011;8544;51.312;12.276;2023-02-15T11:36:24;2.80;;;2.70;;
16856;SDS011;8544;51.312;12.276;2023-02-15T11:38:56;2.27;;;2.27;;
16856;SDS011;8544;51.312;12.276;2023-02-15T11:41:27;4.03;;;3.27;;
16856;SDS011;8544;51.312;12.276;2023-02-15T11:43:56;2.60;;;2.50;;
16856;SDS011;8544;51.312;12.276;2023-02-15T11:46:28;3.37;;;3.17;;
16856;SDS011;8544;51.312;12.276;2023-02-15T11:48:58;2.10;;;2.10;;
16856;SDS011;8544;51.312;12.276;2023-02-15T11:51:27;2.63;;;2.53;;
16856;SDS011;8544;51.312;12.276;2023-02-15T11:53:55;2.67;;;2.57;;
16856;SDS011;8544;51.312;12.276;2023-02-15T11:56:25;1.70;;;1.70;;
16856;SDS011;8544;51.312;12.276;2023-02-15T11:58:54;2.23;;;2.20;;
16856;SDS011;8544;51.312;12.276;2023-02-15T12:01:24;2.43;;;2.33;;
16856;SDS011;8544;51.312;12.276;2023-02-15T12:03:58;1.87;;;1.87;;
16856;SDS011;8544;51.312;12.276;2023-02-15T12:06:29;2.07;;;2.07;;
16856;SDS011;8544;51.312;12.276;2023-02-15T12:09:00;2.17;;;2.17;;
16856;SDS011;8544;51.312;12.276;2023-02-15T12:11:30;2.00;;;1.90;;
16856;SDS011;8544;51.312;12.276;2023-02-15T12:14:01;1.83;;;1.83;;
16856;SDS011;8544;51.312;12.276;2023-02-15T12:16:31;2.30;;;2.27;;
16856;SDS011;8544;51.312;12.276;2023-02-15T12:19:02;2.40;;;2.30;;
16856;SDS011;8544;51.312;12.276;2023-02-15T12:21:30;2.00;;;1.93;;
16856;SDS011;8544;51.312;12.276;2023-02-15T12:24:02;3.07;;;2.83;;
16856;SDS011;8544;51.312;12.276;2023-02-15T12:26:32;2.50;;;2.40;;
16856;SDS011;8544;51.312;12.276;2023-02-15T12:29:06;2.33;;;2.33;;
16856;SDS011;8544;51.312;12.276;2023-02-15T12:31:36;3.90;;;3.70;;
16856;SDS011;8544;51.312;12.276;2023-02-15T12:34:09;2.30;;;2.30;;
16856;SDS011;8544;51.312;12.276;2023-02-15T12:36:40;2.33;;;2.30;;
16856;SDS011;8544;51.312;12.276;2023-02-15T12:39:19;2.03;;;2.03;;
16856;SDS011;8544;51.312;12.276;2023-02-15T12:42:00;1.67;;;1.67;;
16856;SDS011;8544;51.312;12.276;2023-02-15T12:44:28;1.70;;;1.70;;
16856;SDS011;8544;51.312;12.276;2023-02-15T12:46:58;2.17;;;2.17;;
16856;SDS011;8544;51.312;12.276;2023-02-15T12:49:29;2.50;;;2.50;;
16856;SDS011;8544;51.312;12.276;2023-02-15T12:51:58;1.93;;;1.93;;
16856;SDS011;8544;51.312;12.276;2023-02-15T12:54:30;1.97;;;1.97;;
16856;SDS011;8544;51.312;12.276;2023-02-15T12:57:12;2.50;;;2.50;;
16856;SDS011;8544;51.312;12.276;2023-02-15T12:59:49;2.17;;;2.13;;
16856;SDS011;8544;51.312;12.276;2023-02-15T13:02:20;2.43;;;2.43;;
16856;SDS011;8544;51.312;12.276;2023-02-15T13:04:50;2.70;;;2.70;;
16856;SDS011;8544;51.312;12.276;2023-02-15T13:07:18;1.87;;;1.87;;
16856;SDS011;8544;51.312;12.276;2023-02-15T13:09:48;2.10;;;2.10;;
16856;SDS011;8544;51.312;12.276;2023-02-15T13:12:18;2.10;;;2.10;;
16856;SDS011;8544;51.312;12.276;2023-02-15T13:14:48;1.70;;;1.70;;
16856;SDS011;8544;51.312;12.276;2023-02-15T13:17:20;2.30;;;2.27;;
16856;SDS011;8544;51.312;12.276;2023-02-15T13:19:51;2.10;;;2.10;;
16856;SDS011;8544;51.312;12.276;2023-02-15T13:22:22;2.20;;;2.20;;
16856;SDS011;8544;51.312;12.276;2023-02-15T13:24:53;2.73;;;2.63;;
16856;SDS011;8544;51.312;12.276;2023-02-15T13:27:24;3.10;;;3.00;;
16856;SDS011;8544;51.312;12.276;2023-02-15T13:29:53;2.33;;;2.33;;
16856;SDS011;8544;51.312;12.276;2023-02-15T13:32:26;3.33;;;3.23;;
16856;SDS011;8544;51.312;12.276;2023-02-15T13:34:57;3.40;;;3.20;;
16856;SDS011;8544;51.312;12.276;2023-02-15T13:37:34;2.23;;;2.23;;
16856;SDS011;8544;51.312;12.276;2023-02-15T13:40:07;2.10;;;2.10;;
16856;SDS011;8544;51.312;12.276;2023-02-15T13:42:37;2.27;;;2.17;;
16856;SDS011;8544;51.312;12.276;2023-02-15T13:45:13;2.80;;;2.70;;
16856;SDS011;8544;51.312;12.276;2023-02-15T13:47:44;2.10;;;2.10;;
16856;SDS011;8544;51.312;12.276;2023-02-15T13:50:26;2.17;;;2.17;;
16856;SDS011;8544;51.312;12.276;2023-02-15T13:52:57;4.80;;;2.87;;
16856;SDS011;8544;51.312;12.276;2023-02-15T13:55:34;2.73;;;2.63;;
16856;SDS011;8544;51.312;12.276;2023-02-15T13:58:08;2.23;;;2.13;;
16856;SDS011;8544;51.312;12.276;2023-02-15T14:00:40;6.73;;;2.53;;
16856;SDS011;8544;51.312;12.276;2023-02-15T14:03:15;2.40;;;2.40;;
16856;SDS011;8544;51.312;12.276;2023-02-15T14:05:51;1.70;;;1.70;;
16856;SDS011;8544;51.312;12.276;2023-02-15T14:08:25;1.90;;;1.90;;
16856;SDS011;8544;51.312;12.276;2023-02-15T14:11:01;2.37;;;2.27;;
16856;SDS011;8544;51.312;12.276;2023-02-15T14:13:56;2.33;;;2.33;;
16856;SDS011;8544;51.312;12.276;2023-02-15T14:16:28;2.47;;;2.37;;
16856;SDS011;8544;51.312;12.276;2023-02-15T14:19:03;1.80;;;1.80;;
16856;SDS011;8544;51.312;12.276;2023-02-15T14:21:37;2.33;;;2.23;;
16856;SDS011;8544;51.312;12.276;2023-02-15T14:24:11;2.53;;;2.43;;
16856;SDS011;8544;51.312;12.276;2023-02-15T14:26:46;1.87;;;1.87;;
16856;SDS011;8544;51.312;12.276;2023-02-15T14:29:17;2.27;;;2.27;;
16856;SDS011;8544;51.312;12.276;2023-02-15T14:31:47;2.07;;;2.07;;
16856;SDS011;8544;51.312;12.276;2023-02-15T14:34:18;2.33;;;2.23;;
16856;SDS011;8544;51.312;12.276;2023-02-15T14:36:49;2.37;;;2.30;;
16856;SDS011;8544;51.312;12.276;2023-02-15T14:39:23;1.90;;;1.90;;
16856;SDS011;8544;51.312;12.276;2023-02-15T14:42:11;1.83;;;1.83;;
16856;SDS011;8544;51.312;12.276;2023-02-15T14:44:45;1.90;;;1.90;;
16856;SDS011;8544;51.312;12.276;2023-02-15T14:47:18;2.37;;;2.27;;
16856;SDS011;8544;51.312;12.276;2023-02-15T14:49:48;2.17;;;2.17;;
16856;SDS011;8544;51.312;12.276;2023-02-15T14:52:17;2.10;;;2.10;;
16856;SDS011;8544;51.312;12.276;2023-02-15T14:54:53;1.87;;;1.87;;
16856;SDS011;8544;51.312;12.276;2023-02-15T14:57:23;2.37;;;2.37;;
16856;SDS011;8544;51.312;12.276;2023-02-15T14:59:54;2.17;;;2.10;;
16856;SDS011;8544;51.312;12.276;2023-02-15T15:02:25;2.20;;;2.20;;
16856;SDS011;8544;51.312;12.276;2023-02-15T15:04:56;2.23;;;2.23;;
16856;SDS011;8544;51.312;12.276;2023-02-15T15:07:34;2.60;;;2.50;;
16856;SDS011;8544;51.312;12.276;2023-02-15T15:10:04;1.87;;;1.87;;
16856;SDS011;8544;51.312;12.276;2023-02-15T15:12:42;1.90;;;1.90;;
16856;SDS011;8544;51.312;12.276;2023-02-15T15:15:12;2.03;;;2.03;;
16856;SDS011;8544;51.312;12.276;2023-02-15T15:17:56;2.07;;;2.07;;
16856;SDS011;8544;51.312;12.276;2023-02-15T15:20:39;1.63;;;1.63;;
16856;SDS011;8544;51.312;12.276;2023-02-15T15:25:57;2.10;;;2.10;;
16856;SDS011;8544;51.312;12.276;2023-02-15T15:31:08;2.70;;;2.70;;
16856;SDS011;8544;51.312;12.276;2023-02-15T15:33:49;3.07;;;2.97;;
16856;SDS011;8544;51.312;12.276;2023-02-15T15:36:25;3.20;;;3.03;;
16856;SDS011;8544;51.312;12.276;2023-02-15T15:39:01;3.07;;;2.97;;
16856;SDS011;8544;51.312;12.276;2023-02-15T15:41:39;2.20;;;2.20;;